Time;durP1;ratioP1;P1;durP2;ratioP2;P2;SDS_P1;SDS_P2;PMS_P1;PMS_P2;Temp;Humidity;BMP_temperature;BMP_pressure;BME280_temperature;BME280_humidity;BME280_pressure;Samples;Min_cycle;Max_cycle;Signal;HPM_P1;HPM_P2
2023/08/28 00:01:22;;;;;;;;;;;12.50;99.90;;;;;;5050866;28;19929;-82
2023/08/28 00:03:47;;;;;;;;;;;12.50;99.90;;;;;;5001841;28;19932;-82
2023/08/28 00:06:14;;;;;;;;;;;12.50;99.90;;;;;;5032789;28;19926;-82
2023/08/28 00:08:41;;;;;;;;;;;12.40;99.90;;;;;;5031950;28;19931;-82
2023/08/28 00:11:07;;;;;;;;;;;12.40;99.90;;;;;;5066323;28;19929;-82
2023/08/28 00:13:32;;;;;;;;;;;12.40;99.90;;;;;;4999829;28;19933;-83
2023/08/28 00:15:59;;;;;;;;;;;12.30;99.90;;;;;;5018865;28;19934;-82
2023/08/28 00:18:25;;;;;;;;;;;12.30;99.90;;;;;;5015847;28;19932;-82
2023/08/28 00:20:56;;;;;;;;;;;12.30;99.90;;;;;;5014078;28;20442;-81
2023/08/28 00:23:22;;;;;;;;;;;12.30;99.90;;;;;;5019551;28;20223;-82
2023/08/28 00:25:48;;;;;;;;;;;12.20;99.90;;;;;;5015888;28;19947;-82
2023/08/28 00:28:14;;;;;;;;;;;12.20;99.90;;;;;;4999910;28;19948;-82
2023/08/28 00:30:40;;;;;;;;;;;12.20;99.90;;;;;;5020815;28;20002;-82
2023/08/28 00:33:06;;;;;;;;;;;12.20;99.90;;;;;;5019897;28;19929;-82
2023/08/28 00:35:33;;;;;;;;;;;12.10;99.90;;;;;;5048790;28;22157;-82
2023/08/28 00:37:59;;;;;;;;;;;12.10;99.90;;;;;;5033712;28;19930;-82
2023/08/28 00:40:25;;;;;;;;;;;12.10;99.90;;;;;;5031352;28;19925;-82
2023/08/28 00:42:53;;;;;;;;;;;12.10;99.90;;;;;;5021578;28;20047;-82
2023/08/28 00:45:25;;;;;;;;;;;12.10;99.90;;;;;;5034820;28;19932;-82
2023/08/28 00:47:50;;;;;;;;;;;12.10;99.90;;;;;;5018944;28;19929;-82
2023/08/28 00:50:16;;;;;;;;;;;12.10;99.90;;;;;;5021383;28;19925;-82
2023/08/28 00:52:41;;;;;;;;;;;12.10;99.90;;;;;;5017030;28;19956;-82
2023/08/28 00:55:09;;;;;;;;;;;12.10;99.90;;;;;;5005571;28;19933;-82
2023/08/28 00:57:34;;;;;;;;;;;12.10;99.90;;;;;;5064768;28;19925;-82
2023/08/28 01:00:00;;;;;;;;;;;12.00;99.90;;;;;;4995963;28;19926;-82
2023/08/28 01:02:26;;;;;;;;;;;12.10;99.90;;;;;;5005536;28;19925;-82
2023/08/28 01:04:52;;;;;;;;;;;12.00;99.90;;;;;;5005009;28;19936;-82
2023/08/28 01:07:23;;;;;;;;;;;12.00;99.90;;;;;;5024738;28;19993;-82
2023/08/28 01:10:13;;;;;;;;;;;12.00;99.90;;;;;;5035901;28;19972;-82
2023/08/28 01:12:41;;;;;;;;;;;11.90;99.90;;;;;;5060903;28;19936;-82
2023/08/28 01:15:10;;;;;;;;;;;11.80;99.90;;;;;;5040800;28;19941;-83
2023/08/28 01:17:38;;;;;;;;;;;11.80;99.90;;;;;;5020587;28;19925;-83
2023/08/28 01:20:04;;;;;;;;;;;11.70;99.90;;;;;;5053300;28;19925;-83
2023/08/28 01:22:49;;;;;;;;;;;11.60;99.90;;;;;;5015068;28;19930;-83
2023/08/28 01:25:16;;;;;;;;;;;11.60;99.90;;;;;;5062219;28;19926;-83
2023/08/28 01:27:43;;;;;;;;;;;11.50;99.90;;;;;;5037447;28;19932;-83
2023/08/28 01:30:12;;;;;;;;;;;11.60;99.90;;;;;;5018458;28;19926;-83
2023/08/28 01:32:39;;;;;;;;;;;11.60;99.90;;;;;;5017378;28;19925;-83
2023/08/28 01:35:15;;;;;;;;;;;11.60;99.90;;;;;;5018206;28;19960;-83
2023/08/28 01:37:57;;;;;;;;;;;11.60;99.90;;;;;;5016993;28;20016;-82
2023/08/28 01:40:32;;;;;;;;;;;11.60;99.90;;;;;;5049020;28;19932;-83
2023/08/28 01:42:58;;;;;;;;;;;11.60;99.90;;;;;;5032771;28;19940;-84
2023/08/28 01:45:24;;;;;;;;;;;11.60;99.90;;;;;;5030234;28;19925;-84
2023/08/28 01:47:50;;;;;;;;;;;11.70;99.90;;;;;;5035599;28;19926;-85
2023/08/28 01:50:16;;;;;;;;;;;11.70;99.90;;;;;;5003237;28;19936;-84
2023/08/28 01:52:42;;;;;;;;;;;11.70;99.90;;;;;;5013748;28;19933;-85
2023/08/28 01:55:07;;;;;;;;;;;11.70;99.90;;;;;;5002038;28;19936;-85
2023/08/28 01:57:33;;;;;;;;;;;11.80;99.90;;;;;;5016430;28;19925;-84
2023/08/28 01:59:59;;;;;;;;;;;11.80;99.90;;;;;;5000352;28;19988;-84
2023/08/28 02:02:24;;;;;;;;;;;11.80;99.90;;;;;;5004559;28;19996;-84
2023/08/28 02:04:50;;;;;;;;;;;11.80;99.90;;;;;;5012470;28;19926;-84
2023/08/28 02:07:15;;;;;;;;;;;11.80;99.90;;;;;;5000898;28;20024;-84
2023/08/28 02:09:41;;;;;;;;;;;11.80;99.90;;;;;;5016110;28;19925;-84
2023/08/28 02:12:08;;;;;;;;;;;11.80;99.90;;;;;;5017266;28;20028;-83
2023/08/28 02:14:34;;;;;;;;;;;11.80;99.90;;;;;;5040855;28;20027;-84
2023/08/28 02:17:00;;;;;;;;;;;11.80;99.90;;;;;;5021333;28;19944;-83
2023/08/28 02:19:25;;;;;;;;;;;11.70;99.90;;;;;;5003294;28;19987;-84
2023/08/28 02:21:51;;;;;;;;;;;11.80;99.90;;;;;;5019269;28;20008;-84
2023/08/28 02:24:18;;;;;;;;;;;11.70;99.90;;;;;;5033986;28;19952;-84
2023/08/28 02:26:43;;;;;;;;;;;11.70;99.90;;;;;;5005055;28;19925;-84
2023/08/28 02:29:10;;;;;;;;;;;11.70;99.90;;;;;;5018454;28;19971;-84
2023/08/28 02:31:36;;;;;;;;;;;11.70;99.90;;;;;;5017520;28;19928;-83
2023/08/28 02:34:03;;;;;;;;;;;11.70;99.90;;;;;;5004420;28;19925;-83
2023/08/28 02:36:28;;;;;;;;;;;11.70;99.90;;;;;;5022214;28;19925;-83
2023/08/28 02:38:54;;;;;;;;;;;11.70;99.90;;;;;;5003547;28;19997;-84
2023/08/28 02:41:19;;;;;;;;;;;11.70;99.90;;;;;;5002391;28;19929;-83
2023/08/28 02:43:45;;;;;;;;;;;11.70;99.90;;;;;;5016708;28;20384;-83
2023/08/28 02:46:11;;;;;;;;;;;11.70;99.90;;;;;;5044200;28;19932;-83
2023/08/28 02:48:36;;;;;;;;;;;11.60;99.90;;;;;;5039295;28;19936;-83
2023/08/28 02:51:02;;;;;;;;;;;11.70;99.90;;;;;;5036700;28;19987;-83
2023/08/28 02:53:28;;;;;;;;;;;11.60;99.90;;;;;;5036965;28;19925;-83
2023/08/28 02:56:12;;;;;;;;;;;11.60;99.90;;;;;;5025265;28;19932;-83
2023/08/28 02:58:38;;;;;;;;;;;11.70;99.90;;;;;;5050896;28;19965;-83
2023/08/28 03:01:05;;;;;;;;;;;11.60;99.90;;;;;;5037711;28;19936;-82
2023/08/28 03:03:30;;;;;;;;;;;11.70;99.90;;;;;;5035601;28;19928;-83
2023/08/28 03:05:57;;;;;;;;;;;11.70;99.90;;;;;;5008038;28;19952;-82
2023/08/28 03:08:23;;;;;;;;;;;11.70;99.90;;;;;;5019680;28;19929;-82
2023/08/28 03:10:48;;;;;;;;;;;11.70;99.90;;;;;;5020362;28;19982;-83
2023/08/28 03:13:14;;;;;;;;;;;11.70;99.90;;;;;;5002133;28;19933;-83
2023/08/28 03:15:39;;;;;;;;;;;11.70;99.90;;;;;;5034238;28;19936;-83
2023/08/28 03:18:05;;;;;;;;;;;11.60;99.90;;;;;;5023173;28;19932;-83
2023/08/28 03:20:32;;;;;;;;;;;11.60;99.90;;;;;;5004335;28;19997;-82
2023/08/28 03:22:57;;;;;;;;;;;11.60;99.90;;;;;;5035429;28;22403;-82
2023/08/28 03:25:23;;;;;;;;;;;11.60;99.90;;;;;;5033131;28;19951;-83
2023/08/28 03:27:49;;;;;;;;;;;11.50;99.90;;;;;;5005683;28;19929;-82
2023/08/28 03:30:15;;;;;;;;;;;11.50;99.90;;;;;;5019755;28;19931;-82
2023/08/28 03:32:41;;;;;;;;;;;11.50;99.90;;;;;;5020933;28;19948;-83
2023/08/28 03:35:07;;;;;;;;;;;11.50;99.90;;;;;;5011799;28;19972;-84
2023/08/28 03:37:32;;;;;;;;;;;11.40;99.90;;;;;;5040023;28;19929;-82
2023/08/28 03:39:58;;;;;;;;;;;11.40;99.90;;;;;;5007265;28;20388;-83
2023/08/28 03:42:23;;;;;;;;;;;11.40;99.90;;;;;;5023736;28;19928;-83
2023/08/28 03:44:49;;;;;;;;;;;11.40;99.90;;;;;;5039061;28;19952;-82
2023/08/28 03:47:14;;;;;;;;;;;11.40;99.90;;;;;;5009267;28;19948;-83
2023/08/28 03:49:40;;;;;;;;;;;11.30;99.90;;;;;;5038882;28;19925;-83
2023/08/28 03:52:06;;;;;;;;;;;11.30;99.90;;;;;;5009808;28;20369;-83
2023/08/28 03:54:31;;;;;;;;;;;11.20;99.90;;;;;;5039480;28;19929;-83
2023/08/28 03:56:57;;;;;;;;;;;11.20;99.90;;;;;;5030200;28;19940;-83
2023/08/28 03:59:23;;;;;;;;;;;11.20;99.90;;;;;;5015858;28;19964;-83
2023/08/28 04:01:48;;;;;;;;;;;11.20;99.90;;;;;;5039447;28;19925;-83
2023/08/28 04:04:14;;;;;;;;;;;11.20;99.90;;;;;;5037304;28;19971;-83
2023/08/28 04:06:40;;;;;;;;;;;11.20;99.90;;;;;;4997408;28;19929;-83
2023/08/28 04:09:05;;;;;;;;;;;11.20;99.90;;;;;;5052307;28;20499;-83
2023/08/28 04:11:31;;;;;;;;;;;11.10;99.90;;;;;;5018746;28;19933;-83
2023/08/28 04:13:57;;;;;;;;;;;11.10;99.90;;;;;;5000912;28;19968;-83
2023/08/28 04:16:23;;;;;;;;;;;11.00;99.90;;;;;;5036795;28;19929;-83
2023/08/28 04:18:48;;;;;;;;;;;11.00;99.90;;;;;;5003806;28;19960;-83
2023/08/28 04:21:14;;;;;;;;;;;11.00;99.90;;;;;;5001600;28;19925;-83
2023/08/28 04:23:40;;;;;;;;;;;11.00;99.90;;;;;;5001209;28;19925;-83
2023/08/28 04:26:06;;;;;;;;;;;11.00;99.90;;;;;;5019724;28;19952;-82
2023/08/28 04:28:31;;;;;;;;;;;11.00;99.90;;;;;;5036869;28;19933;-82
2023/08/28 04:30:57;;;;;;;;;;;11.00;99.90;;;;;;5014329;28;19975;-83
2023/08/28 04:33:23;;;;;;;;;;;10.90;99.90;;;;;;5034839;28;19972;-83
2023/08/28 04:35:49;;;;;;;;;;;11.00;99.90;;;;;;5035683;28;19929;-83
2023/08/28 04:38:14;;;;;;;;;;;11.00;99.90;;;;;;5016429;28;19933;-83
2023/08/28 04:40:40;;;;;;;;;;;10.90;99.90;;;;;;5049986;28;19924;-83
2023/08/28 04:43:06;;;;;;;;;;;10.90;99.90;;;;;;5037108;28;19932;-83
2023/08/28 04:45:31;;;;;;;;;;;10.90;99.90;;;;;;5000965;28;20348;-83
2023/08/28 04:47:57;;;;;;;;;;;10.90;99.90;;;;;;5023086;28;19925;-84
2023/08/28 04:50:22;;;;;;;;;;;10.90;99.90;;;;;;4998695;28;19929;-83
2023/08/28 04:52:54;;;;;;;;;;;11.00;99.90;;;;;;5033174;28;20335;-83
2023/08/28 04:55:19;;;;;;;;;;;11.00;99.90;;;;;;5021242;28;20337;-83
2023/08/28 04:57:45;;;;;;;;;;;11.00;99.90;;;;;;5002738;28;19925;-83
2023/08/28 05:00:11;;;;;;;;;;;11.00;99.90;;;;;;5024637;28;19925;-83
2023/08/28 05:02:37;;;;;;;;;;;11.00;99.90;;;;;;5033607;28;19933;-83
2023/08/28 05:05:03;;;;;;;;;;;11.10;99.90;;;;;;5049298;28;19925;-83
2023/08/28 05:07:28;;;;;;;;;;;11.00;99.90;;;;;;5038690;28;20331;-83
2023/08/28 05:09:55;;;;;;;;;;;11.10;99.90;;;;;;5037020;28;19940;-83
2023/08/28 05:12:21;;;;;;;;;;;11.10;99.90;;;;;;5038517;28;19925;-83
2023/08/28 05:14:46;;;;;;;;;;;11.20;99.90;;;;;;5037505;28;19935;-83
2023/08/28 05:17:12;;;;;;;;;;;11.30;99.90;;;;;;5037286;28;19925;-83
2023/08/28 05:19:38;;;;;;;;;;;11.30;99.90;;;;;;5020309;28;19925;-83
2023/08/28 05:22:04;;;;;;;;;;;11.40;99.90;;;;;;4997507;28;19925;-83
2023/08/28 05:24:30;;;;;;;;;;;11.40;99.90;;;;;;5038194;28;19996;-82
2023/08/28 05:26:55;;;;;;;;;;;11.50;99.90;;;;;;5038198;28;19929;-83
2023/08/28 05:29:21;;;;;;;;;;;11.60;99.90;;;;;;5024147;28;19933;-83
2023/08/28 05:31:46;;;;;;;;;;;11.60;99.90;;;;;;5003606;28;19925;-83
2023/08/28 05:34:12;;;;;;;;;;;11.70;99.90;;;;;;5020984;28;20020;-83
2023/08/28 05:36:37;;;;;;;;;;;11.70;99.90;;;;;;5015428;28;19929;-83
2023/08/28 05:39:03;;;;;;;;;;;11.70;99.90;;;;;;4999727;28;19940;-83
2023/08/28 05:41:29;;;;;;;;;;;11.70;99.90;;;;;;5064829;28;20003;-83
2023/08/28 05:43:54;;;;;;;;;;;11.70;99.90;;;;;;5003557;28;19928;-83
2023/08/28 05:46:20;;;;;;;;;;;11.80;99.90;;;;;;5004268;28;19933;-83
2023/08/28 05:48:45;;;;;;;;;;;11.90;99.90;;;;;;5016748;28;19979;-83
2023/08/28 05:51:11;;;;;;;;;;;11.90;99.90;;;;;;5036456;28;19940;-84
2023/08/28 05:53:37;;;;;;;;;;;12.00;99.90;;;;;;5021118;28;19983;-83
2023/08/28 05:56:02;;;;;;;;;;;12.00;99.90;;;;;;5053336;28;19929;-83
2023/08/28 05:58:28;;;;;;;;;;;12.20;99.90;;;;;;5019175;28;19948;-83
2023/08/28 06:00:54;;;;;;;;;;;12.30;99.90;;;;;;5019618;28;19985;-84
2023/08/28 06:03:19;;;;;;;;;;;12.40;99.90;;;;;;5024071;28;19931;-84
2023/08/28 06:05:48;;;;;;;;;;;12.50;99.90;;;;;;5057133;28;20408;-83
2023/08/28 06:08:15;;;;;;;;;;;12.50;99.90;;;;;;5005358;28;19968;-83
2023/08/28 06:10:42;;;;;;;;;;;12.50;99.90;;;;;;5052947;28;19993;-83
2023/08/28 06:13:07;;;;;;;;;;;12.60;99.90;;;;;;5017989;28;19939;-83
2023/08/28 06:15:33;;;;;;;;;;;12.60;99.90;;;;;;5052592;28;19972;-83
2023/08/28 06:17:59;;;;;;;;;;;12.60;99.90;;;;;;5036141;28;19940;-84
2023/08/28 06:20:25;;;;;;;;;;;12.60;99.90;;;;;;5035381;28;19955;-84
2023/08/28 06:22:50;;;;;;;;;;;12.60;99.90;;;;;;5047971;28;19941;-84
2023/08/28 06:25:16;;;;;;;;;;;12.70;99.90;;;;;;5003011;28;19947;-84
2023/08/28 06:27:41;;;;;;;;;;;12.70;99.90;;;;;;5003249;28;19925;-84
2023/08/28 06:30:07;;;;;;;;;;;12.70;99.90;;;;;;5022142;28;19936;-84
2023/08/28 06:32:33;;;;;;;;;;;12.80;99.90;;;;;;5004650;28;19925;-84
2023/08/28 06:35:02;;;;;;;;;;;12.80;99.90;;;;;;5008122;28;19925;-84
2023/08/28 06:37:27;;;;;;;;;;;12.90;99.90;;;;;;5037014;28;19992;-85
2023/08/28 06:39:53;;;;;;;;;;;12.90;99.90;;;;;;5018277;28;19972;-84
2023/08/28 06:42:19;;;;;;;;;;;13.10;99.90;;;;;;5037565;28;19959;-86
2023/08/28 06:44:44;;;;;;;;;;;13.10;99.90;;;;;;5018905;28;19933;-84
2023/08/28 06:47:10;;;;;;;;;;;13.20;99.90;;;;;;5021106;28;19961;-85
2023/08/28 06:49:36;;;;;;;;;;;13.30;99.90;;;;;;5018807;28;19929;-84
2023/08/28 06:52:02;;;;;;;;;;;13.40;99.90;;;;;;5037054;28;19952;-83
2023/08/28 06:54:27;;;;;;;;;;;13.40;99.90;;;;;;5034644;28;19933;-84
2023/08/28 06:56:53;;;;;;;;;;;13.50;99.90;;;;;;5024291;28;20269;-83
2023/08/28 06:59:19;;;;;;;;;;;13.60;99.90;;;;;;5036909;28;20301;-85
2023/08/28 07:01:45;;;;;;;;;;;13.70;99.90;;;;;;5003251;28;19932;-84
2023/08/28 07:04:10;;;;;;;;;;;13.80;99.90;;;;;;5035636;28;19925;-84
2023/08/28 07:06:36;;;;;;;;;;;14.00;99.90;;;;;;5007050;28;20388;-84
2023/08/28 07:09:02;;;;;;;;;;;14.20;99.90;;;;;;5033628;28;19933;-84
2023/08/28 07:11:27;;;;;;;;;;;14.40;99.90;;;;;;5021831;28;20395;-85
2023/08/28 07:13:54;;;;;;;;;;;14.50;99.90;;;;;;5025778;28;20091;-84
2023/08/28 07:16:20;;;;;;;;;;;14.70;99.90;;;;;;5023819;28;19925;-84
2023/08/28 07:18:45;;;;;;;;;;;15.10;99.90;;;;;;5033490;28;19929;-83
2023/08/28 07:21:11;;;;;;;;;;;15.70;99.90;;;;;;5037779;28;19952;-84
2023/08/28 07:23:36;;;;;;;;;;;16.50;99.90;;;;;;5024028;28;19935;-83
2023/08/28 07:26:03;;;;;;;;;;;17.30;99.90;;;;;;5021722;28;19925;-83
2023/08/28 07:28:28;;;;;;;;;;;18.10;99.90;;;;;;5021319;28;19941;-83
2023/08/28 07:31:02;;;;;;;;;;;18.80;99.90;;;;;;5009752;28;19939;-85
2023/08/28 07:33:27;;;;;;;;;;;19.40;99.90;;;;;;5042163;28;19929;-84
2023/08/28 07:35:53;;;;;;;;;;;19.90;99.90;;;;;;5031711;28;20012;-82
2023/08/28 07:38:19;;;;;;;;;;;20.30;99.90;;;;;;5037209;28;19990;-86
2023/08/28 07:40:48;;;;;;;;;;;20.70;99.90;;;;;;5020953;28;19933;-84
2023/08/28 07:43:13;;;;;;;;;;;21.00;99.90;;;;;;5022669;28;19948;-82
2023/08/28 07:45:39;;;;;;;;;;;21.30;99.90;;;;;;5036476;28;19925;-65
2023/08/28 07:48:05;;;;;;;;;;;21.60;99.90;;;;;;5039433;28;19932;-65
2023/08/28 07:50:31;;;;;;;;;;;21.90;99.90;;;;;;5034222;28;20030;-85
2023/08/28 07:52:57;;;;;;;;;;;22.10;99.90;;;;;;5021701;28;19937;-84
2023/08/28 07:55:23;;;;;;;;;;;22.50;99.90;;;;;;5024792;28;19929;-84
2023/08/28 07:57:48;;;;;;;;;;;22.70;99.90;;;;;;5005281;28;19970;-85
2023/08/28 08:00:16;;;;;;;;;;;23.00;99.90;;;;;;5024921;28;19936;-85
2023/08/28 08:02:42;;;;;;;;;;;23.30;99.90;;;;;;5039599;28;19924;-84
2023/08/28 08:05:11;;;;;;;;;;;23.40;99.90;;;;;;5022038;28;19936;-84
2023/08/28 08:07:40;;;;;;;;;;;23.60;99.90;;;;;;5023915;28;20268;-84
2023/08/28 08:10:06;;;;;;;;;;;23.80;99.90;;;;;;5035855;28;20027;-84
2023/08/28 08:12:32;;;;;;;;;;;23.80;99.90;;;;;;5034595;28;19929;-83
2023/08/28 08:14:58;;;;;;;;;;;23.80;99.90;;;;;;5047161;28;19933;-80
2023/08/28 08:17:23;;;;;;;;;;;23.90;99.90;;;;;;5032591;28;19929;-81
2023/08/28 08:19:49;;;;;;;;;;;24.10;99.90;;;;;;5062374;28;19948;-83
2023/08/28 08:22:14;;;;;;;;;;;24.20;99.90;;;;;;5010331;28;19925;-83
2023/08/28 08:24:40;;;;;;;;;;;24.20;99.90;;;;;;5061880;28;19984;-82
2023/08/28 08:27:06;;;;;;;;;;;24.30;99.90;;;;;;5067653;28;20442;-83
2023/08/28 08:29:31;;;;;;;;;;;24.40;99.90;;;;;;5013064;28;19933;-84
2023/08/28 08:31:57;;;;;;;;;;;24.50;99.90;;;;;;5020443;28;19964;-82
2023/08/28 08:34:22;;;;;;;;;;;24.20;99.90;;;;;;5020117;28;19942;-82
2023/08/28 08:36:48;;;;;;;;;;;23.60;99.90;;;;;;5033206;28;20456;-83
2023/08/28 08:39:13;;;;;;;;;;;22.70;99.90;;;;;;5037519;28;20673;-84
2023/08/28 08:41:41;;;;;;;;;;;21.90;99.90;;;;;;5016915;28;19971;-83
2023/08/28 08:44:07;;;;;;;;;;;21.20;99.90;;;;;;5033630;28;20001;-83
2023/08/28 08:46:33;;;;;;;;;;;21.20;99.90;;;;;;5030784;28;19929;-83
2023/08/28 08:48:59;;;;;;;;;;;21.50;99.90;;;;;;5015606;28;19931;-83
2023/08/28 08:51:29;;;;;;;;;;;21.50;99.90;;;;;;5014946;28;19932;-83
2023/08/28 08:53:59;;;;;;;;;;;21.20;99.90;;;;;;5018077;28;19971;-83
2023/08/28 08:56:27;;;;;;;;;;;20.70;99.90;;;;;;5037799;28;19975;-83
2023/08/28 08:58:53;;;;;;;;;;;20.20;99.90;;;;;;5022269;28;19936;-83
2023/08/28 09:01:19;;;;;;;;;;;19.90;99.90;;;;;;5030856;28;19929;-83
2023/08/28 09:03:45;;;;;;;;;;;20.00;99.90;;;;;;5022630;28;19925;-85
2023/08/28 09:06:10;;;;;;;;;;;20.50;99.90;;;;;;5022669;28;19982;-85
2023/08/28 09:08:42;;;;;;;;;;;20.50;99.90;;;;;;5021890;28;19932;-85
2023/08/28 09:11:08;;;;;;;;;;;20.40;99.90;;;;;;5038662;28;19980;-84
2023/08/28 09:13:41;;;;;;;;;;;20.50;99.90;;;;;;5039518;28;19933;-84
2023/08/28 09:16:07;;;;;;;;;;;21.20;99.90;;;;;;5037765;28;20319;-84
2023/08/28 09:18:32;;;;;;;;;;;22.00;99.90;;;;;;5029154;28;19929;-84
2023/08/28 09:21:08;;;;;;;;;;;22.30;99.90;;;;;;5037735;28;19925;-86
2023/08/28 09:23:34;;;;;;;;;;;22.10;99.90;;;;;;5016294;28;19969;-83
2023/08/28 09:26:00;;;;;;;;;;;21.50;99.90;;;;;;5020783;28;19932;-84
2023/08/28 09:28:26;;;;;;;;;;;21.10;99.90;;;;;;5023143;28;19993;-82
2023/08/28 09:30:52;;;;;;;;;;;20.70;99.90;;;;;;5029058;28;19932;-84
2023/08/28 09:33:17;;;;;;;;;;;20.30;99.90;;;;;;5004865;28;19934;-84
2023/08/28 09:35:43;;;;;;;;;;;19.90;99.90;;;;;;5037720;28;19925;-83
2023/08/28 09:38:10;;;;;;;;;;;19.60;99.90;;;;;;5037020;28;20001;-84
2023/08/28 09:40:36;;;;;;;;;;;19.40;99.90;;;;;;5028886;28;19951;-82
2023/08/28 09:43:12;;;;;;;;;;;19.20;99.90;;;;;;5021169;28;19944;-84
2023/08/28 09:45:38;;;;;;;;;;;19.00;99.90;;;;;;5032245;28;20406;-84
2023/08/28 09:48:04;;;;;;;;;;;18.80;99.90;;;;;;5037571;28;20301;-83
2023/08/28 09:50:31;;;;;;;;;;;18.70;99.90;;;;;;5037540;28;19925;-82
2023/08/28 09:53:13;;;;;;;;;;;19.10;99.90;;;;;;5036010;28;19929;-84
2023/08/28 09:55:45;;;;;;;;;;;19.90;99.90;;;;;;5032384;28;19925;-85
2023/08/28 09:58:11;;;;;;;;;;;20.80;99.90;;;;;;5034788;28;19931;-82
2023/08/28 10:00:39;;;;;;;;;;;21.70;99.90;;;;;;5053633;28;19925;-85
2023/08/28 10:03:09;;;;;;;;;;;22.30;99.90;;;;;;5021330;28;19929;-85
2023/08/28 10:05:38;;;;;;;;;;;22.80;99.90;;;;;;5069946;28;20297;-84
2023/08/28 10:08:07;;;;;;;;;;;23.30;99.90;;;;;;5020309;28;19947;-83
2023/08/28 10:10:34;;;;;;;;;;;23.70;99.90;;;;;;5037820;28;19925;-83
2023/08/28 10:13:04;;;;;;;;;;;23.90;99.90;;;;;;5037551;28;20428;-83
2023/08/28 10:15:31;;;;;;;;;;;23.90;99.90;;;;;;5032498;28;19965;-85
2023/08/28 10:18:00;;;;;;;;;;;23.90;99.90;;;;;;5036284;28;19933;-85
2023/08/28 10:20:26;;;;;;;;;;;23.90;99.90;;;;;;5041860;28;19932;-81
2023/08/28 10:22:52;;;;;;;;;;;23.90;99.90;;;;;;5036310;28;19936;-83
2023/08/28 10:25:18;;;;;;;;;;;23.80;99.90;;;;;;5025559;28;19956;-83
2023/08/28 10:27:44;;;;;;;;;;;23.70;99.90;;;;;;5035136;28;19971;-83
2023/08/28 10:30:11;;;;;;;;;;;23.50;99.90;;;;;;5049617;28;19925;-82
2023/08/28 10:32:36;;;;;;;;;;;23.00;99.90;;;;;;5004135;28;19933;-82
2023/08/28 10:35:02;;;;;;;;;;;22.50;99.90;;;;;;5037125;28;19936;-82
2023/08/28 10:37:29;;;;;;;;;;;22.10;99.90;;;;;;5040041;28;19979;-83
2023/08/28 10:39:58;;;;;;;;;;;21.90;99.90;;;;;;5061530;28;20030;-83
2023/08/28 10:42:26;;;;;;;;;;;21.70;99.90;;;;;;5055493;28;19933;-83
2023/08/28 10:44:52;;;;;;;;;;;21.60;99.90;;;;;;5040256;28;19956;-84
2023/08/28 10:47:19;;;;;;;;;;;21.40;99.90;;;;;;5023704;28;19936;-83
2023/08/28 10:49:45;;;;;;;;;;;21.20;99.90;;;;;;5038429;28;19925;-83
2023/08/28 10:52:10;;;;;;;;;;;21.00;99.90;;;;;;5037610;28;19932;-83
2023/08/28 10:54:37;;;;;;;;;;;21.00;99.90;;;;;;5021199;28;19926;-84
2023/08/28 10:57:06;;;;;;;;;;;21.30;99.90;;;;;;5055431;28;19925;-83
2023/08/28 10:59:41;;;;;;;;;;;21.60;99.90;;;;;;5053666;28;19931;-84
2023/08/28 11:02:06;;;;;;;;;;;21.90;99.90;;;;;;5034574;28;19968;-83
2023/08/28 11:04:33;;;;;;;;;;;22.30;99.90;;;;;;5040823;28;19932;-84
2023/08/28 11:07:00;;;;;;;;;;;22.30;99.90;;;;;;5023366;28;19933;-84
2023/08/28 11:09:28;;;;;;;;;;;22.40;99.90;;;;;;5039682;28;19929;-84
2023/08/28 11:11:57;;;;;;;;;;;22.60;99.90;;;;;;5040133;28;19925;-84
2023/08/28 11:14:23;;;;;;;;;;;22.70;99.90;;;;;;5040332;28;19925;-83
2023/08/28 11:16:48;;;;;;;;;;;22.80;99.90;;;;;;5022893;28;19929;-84
2023/08/28 11:19:14;;;;;;;;;;;22.90;99.90;;;;;;5043289;28;19933;-84
2023/08/28 11:21:41;;;;;;;;;;;22.70;99.90;;;;;;5006081;28;20433;-83
2023/08/28 11:24:17;;;;;;;;;;;22.50;99.90;;;;;;5022593;28;19924;-81
2023/08/28 11:26:43;;;;;;;;;;;22.40;99.90;;;;;;5056741;28;19952;-80
2023/08/28 11:29:24;;;;;;;;;;;22.40;99.90;;;;;;5039518;28;20258;-82
2023/08/28 11:31:50;;;;;;;;;;;22.60;99.90;;;;;;5023079;28;19925;-82
2023/08/28 11:34:16;;;;;;;;;;;22.70;99.90;;;;;;5039853;28;20098;-82
2023/08/28 11:36:42;;;;;;;;;;;22.60;99.90;;;;;;5023691;28;20670;-82
2023/08/28 11:39:19;;;;;;;;;;;22.40;99.90;;;;;;5025562;28;19990;-82
2023/08/28 11:41:51;;;;;;;;;;;22.10;99.90;;;;;;5037981;28;19931;-83
2023/08/28 11:44:17;;;;;;;;;;;21.90;99.90;;;;;;5040012;28;19940;-83
2023/08/28 11:46:42;;;;;;;;;;;21.80;99.90;;;;;;5022511;28;20293;-83
2023/08/28 11:49:08;;;;;;;;;;;22.00;99.90;;;;;;5036823;28;19951;-82
2023/08/28 11:51:36;;;;;;;;;;;22.30;99.90;;;;;;5032240;28;19925;-79
2023/08/28 11:54:03;;;;;;;;;;;22.60;99.90;;;;;;5023142;28;19925;-80
2023/08/28 11:56:32;;;;;;;;;;;22.80;99.90;;;;;;5039698;28;20422;-80
2023/08/28 11:58:58;;;;;;;;;;;22.90;99.90;;;;;;5023162;28;20070;-80
2023/08/28 12:01:24;;;;;;;;;;;23.10;99.90;;;;;;5014544;28;19929;-80
2023/08/28 12:03:55;;;;;;;;;;;23.00;99.90;;;;;;5034023;28;19929;-80
2023/08/28 12:06:21;;;;;;;;;;;23.00;99.90;;;;;;5039433;28;19932;-80
2023/08/28 12:08:46;;;;;;;;;;;23.00;99.90;;;;;;5039378;28;19925;-80
2023/08/28 12:11:13;;;;;;;;;;;22.70;99.90;;;;;;5020908;28;19940;-80
2023/08/28 12:13:39;;;;;;;;;;;22.50;99.90;;;;;;5040149;28;19925;-79
2023/08/28 12:16:05;;;;;;;;;;;22.40;99.90;;;;;;5006075;28;19932;-79
2023/08/28 12:18:41;;;;;;;;;;;22.40;99.90;;;;;;5022519;28;20047;-80
2023/08/28 12:21:07;;;;;;;;;;;22.40;99.90;;;;;;5022137;28;20037;-80
2023/08/28 12:23:32;;;;;;;;;;;22.40;99.90;;;;;;5006536;28;20381;-79
2023/08/28 12:25:58;;;;;;;;;;;22.30;99.90;;;;;;5039158;28;19925;-80
2023/08/28 12:28:24;;;;;;;;;;;22.30;99.90;;;;;;5055946;28;20782;-81
2023/08/28 12:30:53;;;;;;;;;;;22.30;99.90;;;;;;5038230;28;19979;-79
2023/08/28 12:33:20;;;;;;;;;;;22.30;99.90;;;;;;5022844;28;19929;-80
2023/08/28 12:35:45;;;;;;;;;;;22.40;99.90;;;;;;5037855;28;19940;-80
2023/08/28 12:38:11;;;;;;;;;;;22.60;99.90;;;;;;5022572;28;20004;-80
2023/08/28 12:40:40;;;;;;;;;;;22.60;99.90;;;;;;5007349;28;20392;-79
2023/08/28 12:43:09;;;;;;;;;;;22.50;99.90;;;;;;5020204;28;19929;-79
2023/08/28 12:45:34;;;;;;;;;;;22.50;99.90;;;;;;5038224;28;19974;-80
2023/08/28 12:48:00;;;;;;;;;;;22.40;99.90;;;;;;5022299;28;19980;-80
2023/08/28 12:50:26;;;;;;;;;;;22.30;99.90;;;;;;5071981;28;19925;-80
2023/08/28 12:52:52;;;;;;;;;;;22.40;99.90;;;;;;5037865;28;20309;-80
2023/08/28 12:55:17;;;;;;;;;;;22.60;99.90;;;;;;5022829;28;19933;-77
2023/08/28 12:57:43;;;;;;;;;;;22.60;99.90;;;;;;5041060;28;20020;-77
2023/08/28 13:00:11;;;;;;;;;;;22.60;99.90;;;;;;5036465;28;19925;-79
2023/08/28 13:02:37;;;;;;;;;;;22.60;99.90;;;;;;5022383;28;19929;-79
2023/08/28 13:05:03;;;;;;;;;;;22.50;99.90;;;;;;5021845;28;20482;-79
2023/08/28 13:07:29;;;;;;;;;;;22.40;99.90;;;;;;5037904;28;19925;-79
2023/08/28 13:09:55;;;;;;;;;;;22.40;99.90;;;;;;5022031;28;19925;-80
2023/08/28 13:12:20;;;;;;;;;;;22.60;99.90;;;;;;5038560;28;19971;-80
2023/08/28 13:14:46;;;;;;;;;;;22.80;99.90;;;;;;5054808;28;19924;-80
2023/08/28 13:17:14;;;;;;;;;;;22.90;99.90;;;;;;5020714;28;19940;-79
2023/08/28 13:19:39;;;;;;;;;;;23.00;99.90;;;;;;5037577;28;19988;-80
2023/08/28 13:22:05;;;;;;;;;;;23.00;99.90;;;;;;5037857;28;19925;-80
2023/08/28 13:24:31;;;;;;;;;;;22.90;99.90;;;;;;5038516;28;19925;-79
2023/08/28 13:26:56;;;;;;;;;;;22.80;99.90;;;;;;5021368;28;19925;-80
2023/08/28 13:29:22;;;;;;;;;;;22.70;99.90;;;;;;5063199;28;20020;-80
2023/08/28 13:31:48;;;;;;;;;;;22.60;99.90;;;;;;5055200;28;19929;-80
2023/08/28 13:34:13;;;;;;;;;;;22.40;99.90;;;;;;5038650;28;19947;-79
2023/08/28 13:36:41;;;;;;;;;;;22.30;99.90;;;;;;5011810;28;19947;-80
2023/08/28 13:39:09;;;;;;;;;;;22.10;99.90;;;;;;5035890;28;19986;-80
2023/08/28 13:41:37;;;;;;;;;;;22.00;99.90;;;;;;5005339;28;19924;-80
2023/08/28 13:44:04;;;;;;;;;;;21.90;99.90;;;;;;5054470;28;19935;-79
2023/08/28 13:46:29;;;;;;;;;;;21.90;99.90;;;;;;5021636;28;19925;-79
2023/08/28 13:48:55;;;;;;;;;;;22.00;99.90;;;;;;5017190;28;19940;-80
2023/08/28 13:51:21;;;;;;;;;;;22.30;99.90;;;;;;5021390;28;19925;-80
2023/08/28 13:53:47;;;;;;;;;;;22.20;99.90;;;;;;5070510;28;19925;-80
2023/08/28 13:56:12;;;;;;;;;;;22.30;99.90;;;;;;5038167;28;21555;-80
2023/08/28 13:58:38;;;;;;;;;;;22.40;99.90;;;;;;5035602;28;19995;-81
2023/08/28 14:01:06;;;;;;;;;;;22.40;99.90;;;;;;5037155;28;20043;-80
2023/08/28 14:03:32;;;;;;;;;;;22.50;99.90;;;;;;5052964;28;19925;-76
2023/08/28 14:06:04;;;;;;;;;;;22.50;99.90;;;;;;5037085;28;20443;-77
2023/08/28 14:08:33;;;;;;;;;;;22.50;99.90;;;;;;5036236;28;20404;-78
2023/08/28 14:11:06;;;;;;;;;;;22.40;99.90;;;;;;5052364;28;20443;-80
2023/08/28 14:13:32;;;;;;;;;;;22.30;99.90;;;;;;5029211;28;19929;-80